Royal, Illinois
Current Conditions -  °F | °C
As of 10:10 AM on Thursday 18 Dec 2014 (Local Time) from KTIP Reporting Station
Overcast Overcast  
Wind Chill: 28°   Ceiling: 7000
Heat Index: 28°   Visibility: 10mi
Dew Point: 22°   Wind: 0mph
Humidity: 79%   Direction: NA
Pressure: 30.3"   Gusts: NA
Location:  40.19°N, 87.97°W
Report Text: KTIP 181610Z AUTO 00000KT 10SM OVC070 M02/M05 A3030 RMK AO2 T10231055
Loading
Personal Weather Stations






























Interactive Weather Map New forecast layout! Learn more

10-Day Weather Forecast

Advertisements
Track Severe Weather on mobile